sensor_id;sensor_type;location;lat;lon;timestamp;pressure;altitude;pressure_sealevel;temperature;humidity
12763;BME280;6445;52.490;13.378;2022-08-06T00:01:33;52039.97;;;-146.10;51.03
12763;BME280;6445;52.490;13.378;2022-08-06T00:03:58;52005.97;;;-146.10;51.28
12763;BME280;6445;52.490;13.378;2022-08-06T00:06:24;52035.97;;;-146.10;51.47
12763;BME280;6445;52.490;13.378;2022-08-06T00:08:49;52011.97;;;-146.10;51.53
12763;BME280;6445;52.490;13.378;2022-08-06T00:11:14;52025.97;;;-146.10;52.22
12763;BME280;6445;52.490;13.378;2022-08-06T00:13:39;52017.97;;;-146.10;52.16
12763;BME280;6445;52.490;13.378;2022-08-06T00:16:05;52019.97;;;-146.10;51.65
12763;BME280;6445;52.490;13.378;2022-08-06T00:18:30;52023.97;;;-146.10;51.71
12763;BME280;6445;52.490;13.378;2022-08-06T00:20:55;52021.97;;;-146.10;51.60
12763;BME280;6445;52.490;13.378;2022-08-06T00:23:20;52001.97;;;-146.10;51.59
12763;BME280;6445;52.490;13.378;2022-08-06T00:25:46;52007.97;;;-146.10;51.61
12763;BME280;6445;52.490;13.378;2022-08-06T00:28:11;52011.97;;;-146.10;51.88
12763;BME280;6445;52.490;13.378;2022-08-06T00:30:36;52029.97;;;-146.10;51.86
12763;BME280;6445;52.490;13.378;2022-08-06T00:33:02;52039.97;;;-146.10;51.74
12763;BME280;6445;52.490;13.378;2022-08-06T00:35:27;52043.97;;;-146.10;50.98
12763;BME280;6445;52.490;13.378;2022-08-06T00:37:52;52011.97;;;-146.10;51.29
12763;BME280;6445;52.490;13.378;2022-08-06T00:40:20;52001.97;;;-146.10;51.56
12763;BME280;6445;52.490;13.378;2022-08-06T00:42:45;52039.97;;;-146.10;52.02
12763;BME280;6445;52.490;13.378;2022-08-06T00:45:11;52007.97;;;-146.10;51.51
12763;BME280;6445;52.490;13.378;2022-08-06T00:47:36;51995.97;;;-146.10;51.99
12763;BME280;6445;52.490;13.378;2022-08-06T00:50:02;52001.97;;;-146.10;51.96
12763;BME280;6445;52.490;13.378;2022-08-06T00:52:27;52003.97;;;-146.10;51.39
12763;BME280;6445;52.490;13.378;2022-08-06T00:54:53;52003.97;;;-146.10;51.63
12763;BME280;6445;52.490;13.378;2022-08-06T00:57:18;52003.97;;;-146.10;51.84
12763;BME280;6445;52.490;13.378;2022-08-06T00:59:43;52005.97;;;-146.10;51.85
12763;BME280;6445;52.490;13.378;2022-08-06T01:02:09;52005.97;;;-146.10;51.28
12763;BME280;6445;52.490;13.378;2022-08-06T01:04:34;51995.97;;;-146.10;51.70
12763;BME280;6445;52.490;13.378;2022-08-06T01:06:59;52001.97;;;-146.10;51.56
12763;BME280;6445;52.490;13.378;2022-08-06T01:09:25;51983.97;;;-146.10;51.79
12763;BME280;6445;52.490;13.378;2022-08-06T01:11:51;51999.97;;;-146.10;51.65
12763;BME280;6445;52.490;13.378;2022-08-06T01:14:16;51987.97;;;-146.10;51.82
12763;BME280;6445;52.490;13.378;2022-08-06T01:16:57;51991.97;;;-146.10;51.82
12763;BME280;6445;52.490;13.378;2022-08-06T01:19:35;51983.97;;;-146.10;52.07
12763;BME280;6445;52.490;13.378;2022-08-06T01:25:03;51995.97;;;-146.10;51.70
12763;BME280;6445;52.490;13.378;2022-08-06T01:30:35;51993.97;;;-146.10;52.04
12763;BME280;6445;52.490;13.378;2022-08-06T01:33:06;51991.97;;;-146.10;52.09
12763;BME280;6445;52.490;13.378;2022-08-06T01:35:38;51969.97;;;-146.10;52.32
12763;BME280;6445;52.490;13.378;2022-08-06T01:38:15;51971.97;;;-146.10;52.53
12763;BME280;6445;52.490;13.378;2022-08-06T01:40:44;51975.97;;;-146.10;52.78
12763;BME280;6445;52.490;13.378;2022-08-06T01:43:14;51997.97;;;-146.10;52.64
12763;BME280;6445;52.490;13.378;2022-08-06T01:45:41;51973.97;;;-146.10;52.89
12763;BME280;6445;52.490;13.378;2022-08-06T01:48:12;51965.97;;;-146.10;53.54
12763;BME280;6445;52.490;13.378;2022-08-06T01:50:41;51969.97;;;-146.10;52.90
12763;BME280;6445;52.490;13.378;2022-08-06T01:53:08;51977.97;;;-146.10;53.43
12763;BME280;6445;52.490;13.378;2022-08-06T01:55:41;51969.97;;;-146.10;53.29
12763;BME280;6445;52.490;13.378;2022-08-06T01:58:09;51993.97;;;-146.10;53.06
12763;BME280;6445;52.490;13.378;2022-08-06T02:00:39;51959.97;;;-146.10;53.27
12763;BME280;6445;52.490;13.378;2022-08-06T02:03:14;51965.97;;;-146.10;54.13
12763;BME280;6445;52.490;13.378;2022-08-06T02:05:42;51957.97;;;-146.10;54.13
12763;BME280;6445;52.490;13.378;2022-08-06T02:08:11;51977.97;;;-146.10;53.46
12763;BME280;6445;52.490;13.378;2022-08-06T02:10:39;51995.97;;;-146.10;53.98
12763;BME280;6445;52.490;13.378;2022-08-06T02:13:06;51987.97;;;-146.10;53.43
12763;BME280;6445;52.490;13.378;2022-08-06T02:15:33;51999.97;;;-146.10;53.00
12763;BME280;6445;52.490;13.378;2022-08-06T02:18:02;51975.97;;;-146.10;53.81
12763;BME280;6445;52.490;13.378;2022-08-06T02:20:35;51983.97;;;-146.10;53.87
12763;BME280;6445;52.490;13.378;2022-08-06T02:23:02;51975.97;;;-146.10;54.08
12763;BME280;6445;52.490;13.378;2022-08-06T02:25:30;51971.97;;;-146.10;54.29
12763;BME280;6445;52.490;13.378;2022-08-06T02:27:57;51989.97;;;-146.10;54.67
12763;BME280;6445;52.490;13.378;2022-08-06T02:30:25;51961.97;;;-146.10;54.85
12763;BME280;6445;52.490;13.378;2022-08-06T02:32:52;51965.97;;;-146.10;54.83
12763;BME280;6445;52.490;13.378;2022-08-06T02:35:17;51979.97;;;-146.10;54.94
12763;BME280;6445;52.490;13.378;2022-08-06T02:37:49;51971.97;;;-146.10;54.81
12763;BME280;6445;52.490;13.378;2022-08-06T02:40:33;51981.97;;;-146.10;55.44
12763;BME280;6445;52.490;13.378;2022-08-06T02:43:04;51973.97;;;-146.10;55.66
12763;BME280;6445;52.490;13.378;2022-08-06T02:45:36;51977.97;;;-146.10;55.49
12763;BME280;6445;52.490;13.378;2022-08-06T02:50:43;51967.97;;;-146.10;55.68
12763;BME280;6445;52.490;13.378;2022-08-06T02:53:15;51963.97;;;-146.10;55.51
12763;BME280;6445;52.490;13.378;2022-08-06T02:55:44;51973.97;;;-146.10;55.36
12763;BME280;6445;52.490;13.378;2022-08-06T02:58:13;51957.97;;;-146.10;55.24
12763;BME280;6445;52.490;13.378;2022-08-06T03:00:41;51977.97;;;-146.10;55.14
12763;BME280;6445;52.490;13.378;2022-08-06T03:03:09;51967.97;;;-146.10;55.31
12763;BME280;6445;52.490;13.378;2022-08-06T03:05:37;51967.97;;;-146.10;55.43
12763;BME280;6445;52.490;13.378;2022-08-06T03:08:04;51941.94;;;-146.10;55.20
12763;BME280;6445;52.490;13.378;2022-08-06T03:10:33;51953.97;;;-146.10;55.06
12763;BME280;6445;52.490;13.378;2022-08-06T03:12:59;51951.97;;;-146.10;55.20
12763;BME280;6445;52.490;13.378;2022-08-06T03:15:25;51949.97;;;-146.10;55.48
12763;BME280;6445;52.490;13.378;2022-08-06T03:17:51;51951.97;;;-146.10;55.59
12763;BME280;6445;52.490;13.378;2022-08-06T03:20:23;51953.97;;;-146.10;55.81
12763;BME280;6445;52.490;13.378;2022-08-06T03:22:50;51965.97;;;-146.10;55.62
12763;BME280;6445;52.490;13.378;2022-08-06T03:25:17;51921.94;;;-146.10;55.49
12763;BME280;6445;52.490;13.378;2022-08-06T03:27:44;51959.97;;;-146.10;55.45
12763;BME280;6445;52.490;13.378;2022-08-06T03:30:12;51949.97;;;-146.10;55.60
12763;BME280;6445;52.490;13.378;2022-08-06T03:32:37;51937.94;;;-146.10;55.60
12763;BME280;6445;52.490;13.378;2022-08-06T03:35:03;51943.97;;;-146.10;55.70
12763;BME280;6445;52.490;13.378;2022-08-06T03:37:30;51963.97;;;-146.10;55.80
12763;BME280;6445;52.490;13.378;2022-08-06T03:39:58;51937.94;;;-146.10;55.88
12763;BME280;6445;52.490;13.378;2022-08-06T03:42:25;51945.97;;;-146.10;56.09
12763;BME280;6445;52.490;13.378;2022-08-06T03:44:50;51963.97;;;-146.10;56.06
12763;BME280;6445;52.490;13.378;2022-08-06T03:47:23;51949.97;;;-146.10;55.78
12763;BME280;6445;52.490;13.378;2022-08-06T03:49:55;51929.94;;;-146.10;55.58
12763;BME280;6445;52.490;13.378;2022-08-06T03:52:25;51967.97;;;-146.10;55.43
12763;BME280;6445;52.490;13.378;2022-08-06T03:54:54;51957.97;;;-146.10;55.45
12763;BME280;6445;52.490;13.378;2022-08-06T03:57:24;51973.97;;;-146.10;55.54
12763;BME280;6445;52.490;13.378;2022-08-06T03:59:53;51951.97;;;-146.10;55.47
12763;BME280;6445;52.490;13.378;2022-08-06T04:02:27;51967.97;;;-146.10;55.85
12763;BME280;6445;52.490;13.378;2022-08-06T04:04:53;51951.97;;;-146.10;55.57
12763;BME280;6445;52.490;13.378;2022-08-06T04:07:19;51959.97;;;-146.10;55.40
12763;BME280;6445;52.490;13.378;2022-08-06T04:09:45;51949.97;;;-146.10;55.48
12763;BME280;6445;52.490;13.378;2022-08-06T04:12:11;51943.97;;;-146.10;55.55
12763;BME280;6445;52.490;13.378;2022-08-06T04:14:36;51955.97;;;-146.10;55.40
12763;BME280;6445;52.490;13.378;2022-08-06T04:17:03;51995.97;;;-146.10;55.31
12763;BME280;6445;52.490;13.378;2022-08-06T04:19:30;51957.97;;;-146.10;55.38
12763;BME280;6445;52.490;13.378;2022-08-06T04:21:57;51941.94;;;-146.10;55.05
12763;BME280;6445;52.490;13.378;2022-08-06T04:24:22;51949.97;;;-146.10;55.43
12763;BME280;6445;52.490;13.378;2022-08-06T04:26:51;51953.97;;;-146.10;55.05
12763;BME280;6445;52.490;13.378;2022-08-06T04:29:18;51949.97;;;-146.10;54.84
12763;BME280;6445;52.490;13.378;2022-08-06T04:31:46;51963.97;;;-146.10;55.13
12763;BME280;6445;52.490;13.378;2022-08-06T04:34:17;51971.97;;;-146.10;54.83
12763;BME280;6445;52.490;13.378;2022-08-06T04:36:44;51963.97;;;-146.10;54.88
12763;BME280;6445;52.490;13.378;2022-08-06T04:39:10;51963.97;;;-146.10;54.84
12763;BME280;6445;52.490;13.378;2022-08-06T04:41:36;51959.97;;;-146.10;54.76
12763;BME280;6445;52.490;13.378;2022-08-06T04:44:01;51973.97;;;-146.10;54.53
12763;BME280;6445;52.490;13.378;2022-08-06T04:46:27;51981.97;;;-146.10;54.13
12763;BME280;6445;52.490;13.378;2022-08-06T04:48:52;51987.97;;;-146.10;54.04
12763;BME280;6445;52.490;13.378;2022-08-06T04:51:17;51963.97;;;-146.10;53.97
12763;BME280;6445;52.490;13.378;2022-08-06T04:53:43;51961.97;;;-146.10;53.92
12763;BME280;6445;52.490;13.378;2022-08-06T04:56:09;51979.97;;;-146.10;53.99
12763;BME280;6445;52.490;13.378;2022-08-06T04:58:35;51983.97;;;-146.10;53.94
12763;BME280;6445;52.490;13.378;2022-08-06T05:01:01;51979.97;;;-146.10;54.11
12763;BME280;6445;52.490;13.378;2022-08-06T05:03:28;51983.97;;;-146.10;53.58
12763;BME280;6445;52.490;13.378;2022-08-06T05:06:05;51971.97;;;-146.10;53.73
12763;BME280;6445;52.490;13.378;2022-08-06T05:08:33;51975.97;;;-146.10;53.75
12763;BME280;6445;52.490;13.378;2022-08-06T05:11:12;51975.97;;;-146.10;54.34
12763;BME280;6445;52.490;13.378;2022-08-06T05:13:39;51971.97;;;-146.10;53.54
12763;BME280;6445;52.490;13.378;2022-08-06T05:16:09;51977.97;;;-146.10;53.93
12763;BME280;6445;52.490;13.378;2022-08-06T05:18:43;51991.97;;;-146.10;53.63
12763;BME280;6445;52.490;13.378;2022-08-06T05:21:12;52011.97;;;-146.10;53.40
12763;BME280;6445;52.490;13.378;2022-08-06T05:23:49;51985.97;;;-146.10;53.46
12763;BME280;6445;52.490;13.378;2022-08-06T05:26:16;51969.97;;;-146.10;53.44
12763;BME280;6445;52.490;13.378;2022-08-06T05:28:42;51983.97;;;-146.10;53.35
12763;BME280;6445;52.490;13.378;2022-08-06T05:31:08;51969.97;;;-146.10;53.70
12763;BME280;6445;52.490;13.378;2022-08-06T05:33:35;51993.97;;;-146.10;53.47
12763;BME280;6445;52.490;13.378;2022-08-06T05:36:06;52015.97;;;-146.10;52.82
12763;BME280;6445;52.490;13.378;2022-08-06T05:38:37;52017.97;;;-146.10;51.71
12763;BME280;6445;52.490;13.378;2022-08-06T05:41:07;52009.97;;;-146.10;51.65
12763;BME280;6445;52.490;13.378;2022-08-06T05:43:33;52019.97;;;-146.10;50.30
12763;BME280;6445;52.490;13.378;2022-08-06T05:46:02;52076.00;;;-146.10;48.48
12763;BME280;6445;52.490;13.378;2022-08-06T05:48:31;52140.00;;;-146.10;44.17
12763;BME280;6445;52.490;13.378;2022-08-06T05:51:05;52244.03;;;-146.10;40.73
12763;BME280;6445;52.490;13.378;2022-08-06T05:53:41;52260.03;;;-146.10;39.48
12763;BME280;6445;52.490;13.378;2022-08-06T05:56:14;52328.06;;;-146.10;37.55
12763;BME280;6445;52.490;13.378;2022-08-06T05:58:49;52342.06;;;-146.10;37.20
12763;BME280;6445;52.490;13.378;2022-08-06T06:01:16;52332.06;;;-146.10;37.28
12763;BME280;6445;52.490;13.378;2022-08-06T06:03:43;52378.06;;;-146.10;35.59
12763;BME280;6445;52.490;13.378;2022-08-06T06:06:09;52376.06;;;-146.10;35.08
12763;BME280;6445;52.490;13.378;2022-08-06T06:08:36;52412.09;;;-146.10;35.23
12763;BME280;6445;52.490;13.378;2022-08-06T06:11:02;52468.09;;;-146.10;34.07
12763;BME280;6445;52.490;13.378;2022-08-06T06:13:28;52454.09;;;-146.10;34.40
12763;BME280;6445;52.490;13.378;2022-08-06T06:18:42;52648.19;;;-146.10;31.67
12763;BME280;6445;52.490;13.378;2022-08-06T06:21:25;52474.13;;;-146.10;33.29
12763;BME280;6445;52.490;13.378;2022-08-06T06:24:05;52592.16;;;-146.10;32.21
12763;BME280;6445;52.490;13.378;2022-08-06T06:26:46;52594.16;;;-146.10;32.42
12763;BME280;6445;52.490;13.378;2022-08-06T06:32:32;52558.16;;;-146.10;31.81
12763;BME280;6445;52.490;13.378;2022-08-06T06:35:15;52650.19;;;-146.10;31.37
12763;BME280;6445;52.490;13.378;2022-08-06T06:38:17;52726.22;;;-146.10;30.27
12763;BME280;6445;52.490;13.378;2022-08-06T06:41:03;52712.22;;;-146.10;29.79
12763;BME280;6445;52.490;13.378;2022-08-06T06:43:40;52606.16;;;-146.10;30.97
12763;BME280;6445;52.490;13.378;2022-08-06T06:48:44;52606.16;;;-146.10;31.32
12763;BME280;6445;52.490;13.378;2022-08-06T06:51:13;52680.19;;;-146.10;30.50
12763;BME280;6445;52.490;13.378;2022-08-06T06:53:41;52668.19;;;-146.10;29.88
12763;BME280;6445;52.490;13.378;2022-08-06T06:56:09;52784.25;;;-146.10;29.28
12763;BME280;6445;52.490;13.378;2022-08-06T06:58:42;52730.22;;;-146.10;29.49
12763;BME280;6445;52.490;13.378;2022-08-06T07:01:11;52774.22;;;-146.10;29.18
12763;BME280;6445;52.490;13.378;2022-08-06T07:03:39;52816.25;;;-146.10;28.82
12763;BME280;6445;52.490;13.378;2022-08-06T07:06:06;52856.28;;;-146.10;28.89
12763;BME280;6445;52.490;13.378;2022-08-06T07:08:35;52778.25;;;-146.10;28.84
12763;BME280;6445;52.490;13.378;2022-08-06T07:11:04;52808.25;;;-146.10;28.85
12763;BME280;6445;52.490;13.378;2022-08-06T07:13:31;52982.34;;;-146.10;27.43
12763;BME280;6445;52.490;13.378;2022-08-06T07:15:57;53100.41;;;-146.10;26.62
12763;BME280;6445;52.490;13.378;2022-08-06T07:18:24;53010.34;;;-146.10;27.11
12763;BME280;6445;52.490;13.378;2022-08-06T07:20:51;53114.41;;;-146.10;26.11
12763;BME280;6445;52.490;13.378;2022-08-06T07:23:17;53038.34;;;-146.10;26.67
12763;BME280;6445;52.490;13.378;2022-08-06T07:25:46;52920.31;;;-146.10;27.25
12763;BME280;6445;52.490;13.378;2022-08-06T07:28:12;52896.28;;;-146.10;27.74
12763;BME280;6445;52.490;13.378;2022-08-06T07:30:43;53026.34;;;-146.10;26.96
12763;BME280;6445;52.490;13.378;2022-08-06T07:33:12;53128.41;;;-146.10;26.15
12763;BME280;6445;52.490;13.378;2022-08-06T07:35:40;53118.41;;;-146.10;26.60
12763;BME280;6445;52.490;13.378;2022-08-06T07:38:08;53062.38;;;-146.10;26.41
12763;BME280;6445;52.490;13.378;2022-08-06T07:40:40;53190.44;;;-146.10;26.34
12763;BME280;6445;52.490;13.378;2022-08-06T07:43:13;53084.38;;;-146.10;26.68
12763;BME280;6445;52.490;13.378;2022-08-06T07:45:40;52890.28;;;-146.10;27.74
12763;BME280;6445;52.490;13.378;2022-08-06T07:48:09;53048.38;;;-146.10;27.16
12763;BME280;6445;52.490;13.378;2022-08-06T07:50:35;53188.44;;;-146.10;25.83
12763;BME280;6445;52.490;13.378;2022-08-06T07:53:00;52948.31;;;-146.10;27.42
12763;BME280;6445;52.490;13.378;2022-08-06T07:55:27;52982.34;;;-146.10;27.36
12763;BME280;6445;52.490;13.378;2022-08-06T07:57:53;53084.38;;;-146.10;26.27
12763;BME280;6445;52.490;13.378;2022-08-06T08:00:20;53188.44;;;-146.10;25.93
12763;BME280;6445;52.490;13.378;2022-08-06T08:02:47;53090.38;;;-146.10;26.15
12763;BME280;6445;52.490;13.378;2022-08-06T08:05:34;53288.50;;;-146.10;24.81
12763;BME280;6445;52.490;13.378;2022-08-06T08:08:19;53184.44;;;-146.10;25.55
12763;BME280;6445;52.490;13.378;2022-08-06T08:10:45;53308.50;;;-146.10;24.60
12763;BME280;6445;52.490;13.378;2022-08-06T08:13:12;53140.41;;;-146.10;25.54
12763;BME280;6445;52.490;13.378;2022-08-06T08:15:38;53266.47;;;-146.10;24.99
12763;BME280;6445;52.490;13.378;2022-08-06T08:18:03;53030.34;;;-146.10;26.25
12763;BME280;6445;52.490;13.378;2022-08-06T08:20:30;53328.53;;;-146.10;24.57
12763;BME280;6445;52.490;13.378;2022-08-06T08:22:56;53208.44;;;-146.10;24.53
12763;BME280;6445;52.490;13.378;2022-08-06T08:25:22;53204.44;;;-146.10;24.88
12763;BME280;6445;52.490;13.378;2022-08-06T08:27:47;52926.31;;;-146.10;26.82
12763;BME280;6445;52.490;13.378;2022-08-06T08:30:12;52866.28;;;-146.10;27.07
12763;BME280;6445;52.490;13.378;2022-08-06T08:32:37;52650.19;;;-146.10;29.15
12763;BME280;6445;52.490;13.378;2022-08-06T08:35:03;52796.25;;;-146.10;27.63
12763;BME280;6445;52.490;13.378;2022-08-06T08:37:28;53040.38;;;-146.10;25.97
12763;BME280;6445;52.490;13.378;2022-08-06T08:39:54;53198.44;;;-146.10;24.72
12763;BME280;6445;52.490;13.378;2022-08-06T08:42:25;53262.47;;;-146.10;24.65
12763;BME280;6445;52.490;13.378;2022-08-06T08:44:54;53264.47;;;-146.10;24.71
12763;BME280;6445;52.490;13.378;2022-08-06T08:47:19;53578.66;;;-146.10;23.20
12763;BME280;6445;52.490;13.378;2022-08-06T08:49:47;53380.56;;;-146.10;23.05
12763;BME280;6445;52.490;13.378;2022-08-06T08:52:18;52932.31;;;-146.10;25.61
12763;BME280;6445;52.490;13.378;2022-08-06T08:54:46;53184.44;;;-146.10;24.06
12763;BME280;6445;52.490;13.378;2022-08-06T08:57:15;53362.53;;;-146.10;23.52
12763;BME280;6445;52.490;13.378;2022-08-06T08:59:41;53490.63;;;-146.10;22.96
12763;BME280;6445;52.490;13.378;2022-08-06T09:02:07;53306.50;;;-146.10;23.23
12763;BME280;6445;52.490;13.378;2022-08-06T09:04:35;53758.78;;;-146.10;21.73
12763;BME280;6445;52.490;13.378;2022-08-06T09:07:02;53494.63;;;-146.10;21.95
12763;BME280;6445;52.490;13.378;2022-08-06T09:09:27;53662.72;;;-146.10;22.14
12763;BME280;6445;52.490;13.378;2022-08-06T09:11:53;53526.63;;;-146.10;22.14
12763;BME280;6445;52.490;13.378;2022-08-06T09:14:19;53398.56;;;-146.10;23.08
12763;BME280;6445;52.490;13.378;2022-08-06T09:16:45;53132.41;;;-146.10;23.65
12763;BME280;6445;52.490;13.378;2022-08-06T09:19:10;53184.44;;;-146.10;22.61
12763;BME280;6445;52.490;13.378;2022-08-06T09:21:35;53200.44;;;-146.10;22.25
12763;BME280;6445;52.490;13.378;2022-08-06T09:24:00;53124.41;;;-146.10;23.11
12763;BME280;6445;52.490;13.378;2022-08-06T09:26:26;53380.56;;;-146.10;22.83
12763;BME280;6445;52.490;13.378;2022-08-06T09:28:51;53266.47;;;-146.10;22.37
12763;BME280;6445;52.490;13.378;2022-08-06T09:31:18;53348.53;;;-146.10;21.98
12763;BME280;6445;52.490;13.378;2022-08-06T09:36:19;53720.78;;;-146.10;20.63
12763;BME280;6445;52.490;13.378;2022-08-06T09:41:12;53772.81;;;-146.10;20.42
12763;BME280;6445;52.490;13.378;2022-08-06T09:43:38;53518.63;;;-146.10;21.08
12763;BME280;6445;52.490;13.378;2022-08-06T09:46:04;53504.63;;;-146.10;21.54
12763;BME280;6445;52.490;13.378;2022-08-06T09:48:30;53440.59;;;-146.10;21.55
12763;BME280;6445;52.490;13.378;2022-08-06T09:50:55;53340.53;;;-146.10;22.53
12763;BME280;6445;52.490;13.378;2022-08-06T09:53:20;53432.59;;;-146.10;21.55
12763;BME280;6445;52.490;13.378;2022-08-06T09:55:54;52988.34;;;-146.10;23.39
12763;BME280;6445;52.490;13.378;2022-08-06T09:58:35;53222.47;;;-146.10;22.38
12763;BME280;6445;52.490;13.378;2022-08-06T10:01:11;53132.41;;;-146.10;22.88
12763;BME280;6445;52.490;13.378;2022-08-06T10:03:40;53196.44;;;-146.10;22.58
12763;BME280;6445;52.490;13.378;2022-08-06T10:06:10;53372.53;;;-146.10;21.75
12763;BME280;6445;52.490;13.378;2022-08-06T10:08:37;53184.44;;;-146.10;22.35
12763;BME280;6445;52.490;13.378;2022-08-06T10:11:03;53038.34;;;-146.10;23.02
12763;BME280;6445;52.490;13.378;2022-08-06T10:13:29;52768.22;;;-146.10;25.17
12763;BME280;6445;52.490;13.378;2022-08-06T10:16:00;52648.19;;;-146.10;25.61
12763;BME280;6445;52.490;13.378;2022-08-06T10:18:30;52876.28;;;-146.10;24.55
12763;BME280;6445;52.490;13.378;2022-08-06T10:21:09;52704.19;;;-146.10;25.94
12763;BME280;6445;52.490;13.378;2022-08-06T10:23:37;52574.16;;;-146.10;27.11
12763;BME280;6445;52.490;13.378;2022-08-06T10:26:05;52520.13;;;-146.10;28.14
12763;BME280;6445;52.490;13.378;2022-08-06T10:28:33;52482.13;;;-146.10;29.15
12763;BME280;6445;52.490;13.378;2022-08-06T10:31:01;52544.13;;;-146.10;27.68
12763;BME280;6445;52.490;13.378;2022-08-06T10:33:29;52588.16;;;-146.10;27.01
12763;BME280;6445;52.490;13.378;2022-08-06T10:36:00;52530.13;;;-146.10;27.72
12763;BME280;6445;52.490;13.378;2022-08-06T10:38:28;52602.16;;;-146.10;27.74
12763;BME280;6445;52.490;13.378;2022-08-06T10:40:56;52556.16;;;-146.10;27.56
12763;BME280;6445;52.490;13.378;2022-08-06T10:43:24;52478.13;;;-146.10;28.47
12763;BME280;6445;52.490;13.378;2022-08-06T10:45:49;52494.13;;;-146.10;28.69
12763;BME280;6445;52.490;13.378;2022-08-06T10:48:16;52512.13;;;-146.10;28.31
12763;BME280;6445;52.490;13.378;2022-08-06T10:50:41;52388.09;;;-146.10;28.30
12763;BME280;6445;52.490;13.378;2022-08-06T10:53:07;52390.09;;;-146.10;28.80
12763;BME280;6445;52.490;13.378;2022-08-06T10:55:34;52490.13;;;-146.10;27.64
12763;BME280;6445;52.490;13.378;2022-08-06T10:57:59;52474.13;;;-146.10;28.51
12763;BME280;6445;52.490;13.378;2022-08-06T11:00:26;52448.09;;;-146.10;28.63
12763;BME280;6445;52.490;13.378;2022-08-06T11:03:00;52408.09;;;-146.10;29.00
12763;BME280;6445;52.490;13.378;2022-08-06T11:05:36;52380.09;;;-146.10;29.46
12763;BME280;6445;52.490;13.378;2022-08-06T11:08:11;52314.06;;;-146.10;29.99
12763;BME280;6445;52.490;13.378;2022-08-06T11:10:52;52380.09;;;-146.10;29.42
12763;BME280;6445;52.490;13.378;2022-08-06T11:15:48;52388.09;;;-146.10;28.91
12763;BME280;6445;52.490;13.378;2022-08-06T11:18:14;52408.09;;;-146.10;29.04
12763;BME280;6445;52.490;13.378;2022-08-06T11:20:50;52406.09;;;-146.10;28.75
12763;BME280;6445;52.490;13.378;2022-08-06T11:25:44;52324.06;;;-146.10;29.17
12763;BME280;6445;52.490;13.378;2022-08-06T11:28:14;52394.09;;;-146.10;28.70
12763;BME280;6445;52.490;13.378;2022-08-06T11:30:46;52412.09;;;-146.10;28.76
12763;BME280;6445;52.490;13.378;2022-08-06T11:33:21;52550.16;;;-146.10;27.60
12763;BME280;6445;52.490;13.378;2022-08-06T11:35:50;52580.16;;;-146.10;26.25
12763;BME280;6445;52.490;13.378;2022-08-06T11:41:29;52606.16;;;-146.10;26.62
12763;BME280;6445;52.490;13.378;2022-08-06T11:46:31;52490.13;;;-146.10;27.61
12763;BME280;6445;52.490;13.378;2022-08-06T11:51:54;52544.13;;;-146.10;26.04
12763;BME280;6445;52.490;13.378;2022-08-06T11:54:28;52512.13;;;-146.10;27.00
12763;BME280;6445;52.490;13.378;2022-08-06T11:59:30;52470.13;;;-146.10;26.79
12763;BME280;6445;52.490;13.378;2022-08-06T12:01:57;52446.09;;;-146.10;27.42
12763;BME280;6445;52.490;13.378;2022-08-06T12:07:16;52386.09;;;-146.10;28.35
12763;BME280;6445;52.490;13.378;2022-08-06T12:09:47;52418.09;;;-146.10;28.55
12763;BME280;6445;52.490;13.378;2022-08-06T12:14:51;52378.06;;;-146.10;28.57
12763;BME280;6445;52.490;13.378;2022-08-06T12:17:24;52404.09;;;-146.10;28.52
12763;BME280;6445;52.490;13.378;2022-08-06T12:19:53;52446.09;;;-146.10;27.70
12763;BME280;6445;52.490;13.378;2022-08-06T12:22:21;52440.09;;;-146.10;27.52
12763;BME280;6445;52.490;13.378;2022-08-06T12:24:53;52430.09;;;-146.10;27.80
12763;BME280;6445;52.490;13.378;2022-08-06T12:27:21;52380.09;;;-146.10;27.84
12763;BME280;6445;52.490;13.378;2022-08-06T12:29:46;52356.06;;;-146.10;28.17
12763;BME280;6445;52.490;13.378;2022-08-06T12:32:26;52384.09;;;-146.10;27.07
12763;BME280;6445;52.490;13.378;2022-08-06T12:34:54;52418.09;;;-146.10;27.21
12763;BME280;6445;52.490;13.378;2022-08-06T12:37:19;52408.09;;;-146.10;27.35
12763;BME280;6445;52.490;13.378;2022-08-06T12:39:45;52398.09;;;-146.10;26.91
12763;BME280;6445;52.490;13.378;2022-08-06T12:42:31;52474.13;;;-146.10;25.97
12763;BME280;6445;52.490;13.378;2022-08-06T12:44:56;52524.13;;;-146.10;25.38
12763;BME280;6445;52.490;13.378;2022-08-06T12:47:22;52486.13;;;-146.10;25.93
12763;BME280;6445;52.490;13.378;2022-08-06T12:49:49;52558.16;;;-146.10;25.41
12763;BME280;6445;52.490;13.378;2022-08-06T12:52:15;52580.16;;;-146.10;25.05
12763;BME280;6445;52.490;13.378;2022-08-06T12:54:46;52490.13;;;-146.10;25.74
12763;BME280;6445;52.490;13.378;2022-08-06T12:57:26;52414.09;;;-146.10;26.66
12763;BME280;6445;52.490;13.378;2022-08-06T12:59:52;52506.13;;;-146.10;26.20
12763;BME280;6445;52.490;13.378;2022-08-06T13:02:20;52478.13;;;-146.10;26.06
12763;BME280;6445;52.490;13.378;2022-08-06T13:04:50;52468.09;;;-146.10;25.93
12763;BME280;6445;52.490;13.378;2022-08-06T13:07:17;52502.13;;;-146.10;25.31
12763;BME280;6445;52.490;13.378;2022-08-06T13:09:44;52508.13;;;-146.10;24.82
12763;BME280;6445;52.490;13.378;2022-08-06T13:12:19;52492.13;;;-146.10;25.07
12763;BME280;6445;52.490;13.378;2022-08-06T13:14:51;52512.13;;;-146.10;24.90
12763;BME280;6445;52.490;13.378;2022-08-06T13:17:22;52716.22;;;-146.10;23.76
12763;BME280;6445;52.490;13.378;2022-08-06T13:19:56;52770.22;;;-146.10;22.97
12763;BME280;6445;52.490;13.378;2022-08-06T13:22:22;52678.19;;;-146.10;22.74
12763;BME280;6445;52.490;13.378;2022-08-06T13:25:07;52708.22;;;-146.10;23.03
12763;BME280;6445;52.490;13.378;2022-08-06T13:27:34;52788.25;;;-146.10;22.60
12763;BME280;6445;52.490;13.378;2022-08-06T13:30:04;52838.25;;;-146.10;22.66
12763;BME280;6445;52.490;13.378;2022-08-06T13:32:30;52702.19;;;-146.10;22.92